Time;durP1;ratioP1;P1;durP2;ratioP2;P2;SDS_P1;SDS_P2;PMS_P1;PMS_P2;Temp;Humidity;BMP_temperature;BMP_pressure;BME280_temperature;BME280_humidity;BME280_pressure;Samples;Min_cycle;Max_cycle;Signal;HPM_P1;HPM_P2
2023/10/13 00:03:02;;;;;;;10.30;5.15;;;14.90;99.90;;;;;;2603207;54;20855;31
2023/10/13 00:05:52;;;;;;;13.32;6.50;;;14.90;99.90;;;;;;2602567;54;20779;31
2023/10/13 00:08:28;;;;;;;10.55;6.60;;;14.90;99.90;;;;;;2602550;54;20949;31
2023/10/13 00:11:14;;;;;;;10.75;6.15;;;14.90;99.90;;;;;;2603064;54;20896;31
2023/10/13 00:13:54;;;;;;;9.60;5.65;;;14.90;99.90;;;;;;2701853;39;20488;31
2023/10/13 00:16:30;;;;;;;11.95;5.53;;;14.90;99.90;;;;;;2603193;54;20026;31
2023/10/13 00:19:05;;;;;;;9.83;5.60;;;14.90;99.90;;;;;;2602840;54;20947;31
2023/10/13 00:21:38;;;;;;;12.25;6.10;;;14.90;99.90;;;;;;2621336;47;22319;31
2023/10/13 00:24:14;;;;;;;9.40;5.35;;;14.90;99.90;;;;;;2603262;54;20042;31
2023/10/13 00:26:53;;;;;;;12.00;5.47;;;14.90;99.90;;;;;;2602892;54;20885;31
2023/10/13 00:29:37;;;;;;;12.05;5.47;;;14.80;99.90;;;;;;2701693;39;20473;31
2023/10/13 00:32:13;;;;;;;13.93;6.07;;;14.80;99.90;;;;;;2603091;54;20057;31
2023/10/13 00:34:47;;;;;;;;;;;14.80;99.90;;;;;;2603306;54;20105;31
2023/10/13 00:37:28;;;;;;;12.55;6.00;;;14.80;99.90;;;;;;2603088;54;19935;31
2023/10/13 00:40:08;;;;;;;11.63;6.65;;;14.80;99.90;;;;;;2602996;54;20051;31
2023/10/13 00:42:50;;;;;;;10.17;6.37;;;14.80;99.90;;;;;;2603101;54;20033;31
2023/10/13 00:45:28;;;;;;;11.15;5.60;;;14.80;99.90;;;;;;2621470;46;20023;31
2023/10/13 00:48:10;;;;;;;12.35;6.43;;;14.80;99.90;;;;;;2603017;54;20105;31
2023/10/13 00:50:47;;;;;;;14.98;6.00;;;14.80;99.90;;;;;;2701433;39;20512;31
2023/10/13 00:53:22;;;;;;;9.37;5.63;;;14.80;99.90;;;;;;2602993;54;20802;31
2023/10/13 00:55:55;;;;;;;10.77;6.63;;;14.80;99.90;;;;;;2603042;54;20239;31
2023/10/13 00:58:31;;;;;;;13.88;7.03;;;14.80;99.90;;;;;;2603257;54;20026;31
2023/10/13 01:01:21;;;;;;;8.93;5.77;;;14.70;99.90;;;;;;2602803;54;20057;31
2023/10/13 01:03:55;;;;;;;13.93;5.72;;;14.70;99.90;;;;;;2772766;31;21578;31
2023/10/13 01:06:30;;;;;;;20.30;7.35;;;14.70;99.90;;;;;;2602899;54;20054;31
2023/10/13 01:09:12;;;;;;;13.15;6.80;;;14.70;99.90;;;;;;2602893;54;20577;31
2023/10/13 01:11:52;;;;;;;12.38;5.95;;;14.70;99.90;;;;;;2602946;54;20032;31
2023/10/13 01:14:27;;;;;;;13.10;6.57;;;14.70;99.90;;;;;;2621312;47;20027;31
2023/10/13 01:17:05;;;;;;;8.80;5.13;;;14.70;99.90;;;;;;2701299;39;20565;31
2023/10/13 01:19:42;;;;;;;18.05;7.00;;;14.60;99.90;;;;;;2602890;54;20026;31
2023/10/13 01:22:18;;;;;;;12.38;6.53;;;14.70;99.90;;;;;;2602807;54;20101;31
2023/10/13 01:25:04;;;;;;;13.63;6.17;;;14.70;99.90;;;;;;2602854;54;20797;31
2023/10/13 01:27:40;;;;;;;11.32;7.25;;;14.70;99.90;;;;;;2603066;54;20293;31
2023/10/13 01:30:13;;;;;;;13.00;6.97;;;14.70;99.90;;;;;;2602894;54;20859;31
2023/10/13 01:32:50;;;;;;;16.23;7.20;;;14.70;99.90;;;;;;2603600;54;20778;31
2023/10/13 01:35:41;;;;;;;10.13;7.00;;;14.70;99.90;;;;;;2603669;54;20573;31
2023/10/13 01:38:17;;;;;;;12.00;7.40;;;14.70;99.90;;;;;;2603916;54;20030;31
2023/10/13 01:40:56;;;;;;;19.55;8.23;;;14.60;99.90;;;;;;2603883;54;20068;31
2023/10/13 01:43:28;;;;;;;16.13;8.55;;;14.60;99.90;;;;;;2603353;54;20038;31
2023/10/13 01:46:03;;;;;;;18.20;7.85;;;14.60;99.90;;;;;;2603384;54;20026;31
2023/10/13 01:48:38;;;;;;;13.35;8.52;;;14.60;99.90;;;;;;2603604;54;20033;31
2023/10/13 01:51:13;;;;;;;14.05;6.95;;;14.60;99.90;;;;;;2603658;54;20554;31
2023/10/13 01:53:53;;;;;;;17.25;8.95;;;14.60;99.90;;;;;;2622386;46;21009;31
2023/10/13 01:56:31;;;;;;;15.80;7.70;;;14.60;99.90;;;;;;2621977;46;20034;31
2023/10/13 01:59:05;;;;;;;11.55;6.50;;;14.60;99.90;;;;;;2603914;54;20030;31
2023/10/13 02:01:41;;;;;;;12.30;7.70;;;14.60;99.90;;;;;;2622052;46;20038;31
2023/10/13 02:04:14;;;;;;;13.05;7.55;;;14.60;99.90;;;;;;2603545;54;20038;31
2023/10/13 02:06:52;;;;;;;17.58;8.68;;;14.60;99.90;;;;;;2603510;54;21004;31
2023/10/13 02:09:25;;;;;;;14.98;8.10;;;14.60;99.90;;;;;;2603694;54;20027;31
2023/10/13 02:12:06;;;;;;;16.02;8.18;;;14.60;99.90;;;;;;2603295;54;20092;31
2023/10/13 02:14:38;;;;;;;16.65;8.45;;;14.60;99.90;;;;;;2603261;54;20033;31
2023/10/13 02:17:16;;;;;;;11.45;7.28;;;14.60;99.90;;;;;;2720229;39;20516;31
2023/10/13 02:19:54;;;;;;;12.40;7.07;;;14.60;99.90;;;;;;2603641;54;20812;31
2023/10/13 02:22:29;;;;;;;16.58;8.07;;;14.60;99.90;;;;;;2603599;54;20046;31
2023/10/13 02:25:05;;;;;;;15.82;8.25;;;14.60;99.90;;;;;;2603425;54;20778;31
2023/10/13 02:27:58;;;;;;;13.70;7.47;;;14.60;99.90;;;;;;2603452;54;20104;31
2023/10/13 02:30:30;;;;;;;19.67;9.10;;;14.60;99.90;;;;;;2603435;54;20089;31
2023/10/13 02:33:06;;;;;;;13.57;7.50;;;14.60;99.90;;;;;;2701977;39;20466;31
2023/10/13 02:35:53;;;;;;;12.47;7.63;;;14.60;99.90;;;;;;2621696;46;20900;31
2023/10/13 02:38:32;;;;;;;14.20;6.90;;;14.60;99.90;;;;;;2603642;54;19941;31
2023/10/13 02:41:08;;;;;;;17.88;8.43;;;14.60;99.90;;;;;;2603351;54;20235;31
2023/10/13 02:43:43;;;;;;;12.95;7.82;;;14.60;99.90;;;;;;2603321;54;20036;31
2023/10/13 02:46:21;;;;;;;16.05;7.07;;;14.50;99.90;;;;;;2621768;46;20116;31
2023/10/13 02:48:53;;;;;;;13.52;6.80;;;14.50;99.90;;;;;;2603385;54;20955;31
2023/10/13 02:51:35;;;;;;;14.27;7.60;;;14.50;99.90;;;;;;2603488;54;20802;31
2023/10/13 02:54:17;;;;;;;12.18;6.40;;;14.50;99.90;;;;;;2603231;54;22502;31
2023/10/13 02:56:56;;;;;;;15.60;8.20;;;14.50;99.90;;;;;;2621797;46;20042;31
2023/10/13 02:59:46;;;;;;;11.27;6.43;;;14.50;99.90;;;;;;2603517;54;20057;31
2023/10/13 03:02:23;;;;;;;16.93;7.67;;;14.40;99.90;;;;;;2621990;46;20030;31
2023/10/13 03:04:59;;;;;;;16.25;7.78;;;14.40;99.90;;;;;;2603342;54;20791;31
2023/10/13 03:07:31;;;;;;;13.50;7.60;;;14.40;99.90;;;;;;2621399;46;20022;31
2023/10/13 03:10:14;;;;;;;12.60;6.65;;;14.40;99.90;;;;;;2603616;54;20054;31
2023/10/13 03:12:48;;;;;;;13.35;7.45;;;14.20;99.90;;;;;;2603621;54;20053;31
2023/10/13 03:15:30;;;;;;;15.63;6.97;;;14.30;99.90;;;;;;2603495;54;20820;31
2023/10/13 03:18:05;;;;;;;12.00;6.80;;;14.30;99.90;;;;;;2603298;54;20026;31
2023/10/13 03:20:42;;;;;;;15.60;7.80;;;14.30;99.90;;;;;;2603337;54;20031;31
2023/10/13 03:23:15;;;;;;;10.93;6.97;;;14.30;99.90;;;;;;2603286;54;20813;31
2023/10/13 03:25:50;;;;;;;16.60;6.90;;;14.30;99.90;;;;;;2603311;54;20248;31
2023/10/13 03:28:33;;;;;;;10.68;6.35;;;14.30;99.90;;;;;;2603431;54;20588;31
2023/10/13 03:31:17;;;;;;;12.38;6.75;;;14.20;99.90;;;;;;2603351;54;20112;31
2023/10/13 03:33:56;;;;;;;14.05;7.20;;;14.20;99.90;;;;;;2622017;46;20030;31
2023/10/13 03:39:18;;;;;;;12.10;7.37;;;14.10;99.90;;;;;;2603393;54;20017;31
2023/10/13 03:41:54;;;;;;;12.97;6.47;;;14.10;99.90;;;;;;2603258;54;20026;31
2023/10/13 03:44:38;;;;;;;8.75;5.70;;;14.10;99.90;;;;;;2603298;54;20077;31
2023/10/13 03:47:26;;;;;;;10.80;5.00;;;14.10;99.90;;;;;;2603215;54;20056;31
2023/10/13 03:52:48;;;;;;;11.57;7.07;;;14.00;99.90;;;;;;2603283;54;20033;31
2023/10/13 03:55:26;;;;;;;10.48;5.30;;;14.00;99.90;;;;;;2701427;39;20559;31
2023/10/13 03:58:03;;;;;;;11.73;6.13;;;14.00;99.90;;;;;;2603134;54;20862;31
2023/10/13 04:00:36;;;;;;;9.07;5.65;;;14.00;99.90;;;;;;2621532;46;22344;31
2023/10/13 04:03:16;;;;;;;10.80;5.45;;;14.00;99.90;;;;;;2603270;54;20031;31
2023/10/13 04:06:08;;;;;;;11.32;6.20;;;14.00;99.90;;;;;;2603230;54;20878;31
2023/10/13 04:12:21;;;;;;;12.73;7.10;;;13.90;99.90;;;;;;2603370;54;20048;31
2023/10/13 04:17:50;;;;;;;10.40;6.63;;;13.90;99.90;;;;;;2603260;54;20785;31
2023/10/13 04:20:38;;;;;;;12.35;7.05;;;13.90;99.90;;;;;;2603104;54;20257;31
2023/10/13 04:23:22;;;;;;;11.30;5.25;;;13.90;99.90;;;;;;2603255;54;20931;31
2023/10/13 04:28:55;;;;;;;12.00;6.70;;;13.90;99.90;;;;;;2613410;46;20100;31
2023/10/13 04:34:27;;;;;;;13.80;7.30;;;14.00;99.90;;;;;;2603077;54;20863;31
2023/10/13 04:37:28;;;;;;;13.15;7.20;;;14.00;99.90;;;;;;2603061;54;21149;31
2023/10/13 04:40:09;;;;;;;12.85;7.30;;;14.00;99.90;;;;;;2621389;46;20900;31
2023/10/13 04:42:49;;;;;;;12.70;6.80;;;14.00;99.90;;;;;;2621625;46;20031;31
2023/10/13 04:45:53;;;;;;;12.15;7.60;;;14.00;99.90;;;;;;2602994;54;21473;31
2023/10/13 04:48:29;;;;;;;13.65;7.40;;;14.00;99.90;;;;;;2603086;54;20042;31
2023/10/13 04:54:11;;;;;;;13.73;7.93;;;14.00;99.90;;;;;;2621418;46;20787;31
2023/10/13 04:56:59;;;;;;;12.35;7.38;;;14.00;99.90;;;;;;2602985;54;20770;31
2023/10/13 05:00:43;;;;;;;11.20;7.45;;;14.00;99.90;;;;;;2602906;54;20057;31
2023/10/13 05:05:45;;;;;;;13.70;7.50;;;14.10;99.90;;;;;;2602701;54;20887;31
2023/10/13 05:48:11;;;;;;;13.68;7.53;;;14.50;99.90;;;;;;2603488;54;20886;31
2023/10/13 06:30:20;;;;;;;17.63;9.17;;;15.10;99.90;;;;;;2603624;54;20804;31
2023/10/13 06:32:57;;;;;;;17.50;9.90;;;15.30;99.90;;;;;;2621663;46;21130;31
2023/10/13 06:35:34;;;;;;;15.70;10.30;;;15.70;99.90;;;;;;2603376;54;22383;31
2023/10/13 06:38:20;;;;;;;15.70;8.73;;;16.10;99.90;;;;;;2603295;54;20108;31
2023/10/13 06:40:58;;;;;;;14.20;7.97;;;16.80;99.90;;;;;;2621866;46;20989;31
2023/10/13 06:43:39;;;;;;;13.57;8.70;;;17.30;99.90;;;;;;2621877;46;21005;31
2023/10/13 06:46:23;;;;;;;12.20;8.00;;;17.90;99.90;;;;;;2603569;54;20050;31
2023/10/13 06:49:02;;;;;;;22.52;9.55;;;18.50;99.90;;;;;;2603561;54;20037;31
2023/10/13 06:51:43;;;;;;;17.27;9.27;;;19.00;99.90;;;;;;2603517;54;20112;31
2023/10/13 06:54:22;;;;;;;19.60;10.10;;;19.40;99.90;;;;;;2622209;46;20029;31
2023/10/13 06:56:58;;;;;;;17.00;9.63;;;19.80;99.90;;;;;;2603569;54;20030;31
2023/10/13 06:59:36;;;;;;;16.13;8.40;;;20.20;99.90;;;;;;2603524;54;20033;31
2023/10/13 07:02:21;;;;;;;16.13;9.05;;;20.50;99.90;;;;;;2603316;54;20853;31
2023/10/13 07:05:07;;;;;;;16.50;9.00;;;20.80;99.90;;;;;;2603722;54;20023;31
2023/10/13 07:07:49;;;;;;;13.35;8.75;;;21.10;99.90;;;;;;2615024;46;20156;31
2023/10/13 07:10:30;;;;;;;14.60;8.30;;;21.40;99.90;;;;;;2603408;54;20031;31
2023/10/13 07:13:07;;;;;;;17.05;8.90;;;21.60;99.90;;;;;;2603503;54;20781;31
2023/10/13 07:15:49;;;;;;;17.63;9.23;;;21.90;99.90;;;;;;2603512;54;20027;31
2023/10/13 07:18:35;;;;;;;12.82;8.27;;;22.10;99.90;;;;;;2602691;54;19934;31
2023/10/13 07:21:15;;;;;;;16.75;8.70;;;22.30;99.90;;;;;;2603462;54;20034;31
2023/10/13 07:24:00;;;;;;;12.15;7.47;;;22.50;99.90;;;;;;2603387;54;20859;31
2023/10/13 07:26:42;;;;;;;16.27;7.85;;;22.60;99.90;;;;;;2603397;54;20053;31
2023/10/13 07:29:21;;;;;;;10.52;7.60;;;22.90;99.90;;;;;;2622112;46;20593;31
2023/10/13 07:31:58;;;;;;;15.95;8.00;;;23.20;99.90;;;;;;2621868;46;20906;31
2023/10/13 07:34:40;;;;;;;17.90;7.53;;;23.40;99.90;;;;;;2603230;54;20096;31
2023/10/13 07:37:18;;;;;;;13.57;6.95;;;23.50;99.90;;;;;;2720663;39;20479;31
2023/10/13 07:40:09;;;;;;;12.05;6.93;;;23.60;99.90;;;;;;2603430;54;20105;31
2023/10/13 07:42:51;;;;;;;15.93;7.68;;;23.70;99.90;;;;;;2603448;54;20023;31
2023/10/13 07:45:35;;;;;;;14.47;7.53;;;23.80;99.90;;;;;;2701922;39;20457;31
2023/10/13 07:48:19;;;;;;;8.48;6.65;;;24.00;99.90;;;;;;2603362;54;20648;31
2023/10/13 07:51:03;;;;;;;13.30;6.35;;;24.10;99.90;;;;;;2601418;54;20177;31
2023/10/13 07:53:40;;;;;;;11.70;7.28;;;24.30;99.90;;;;;;2621662;46;20051;31
2023/10/13 07:56:21;;;;;;;11.32;6.95;;;24.40;99.90;;;;;;2621759;46;20038;31
2023/10/13 07:59:06;;;;;;;8.48;6.65;;;24.40;99.90;;;;;;2602522;54;20034;31
2023/10/13 08:02:11;;;;;;;11.75;6.50;;;24.40;99.90;;;;;;2603289;54;20053;31
2023/10/13 08:04:50;;;;;;;10.40;7.30;;;24.60;99.90;;;;;;2701853;39;20462;31
2023/10/13 08:07:31;;;;;;;9.75;6.40;;;24.80;99.90;;;;;;2701291;39;20574;31
2023/10/13 08:10:16;;;;;;;10.40;6.73;;;24.90;99.90;;;;;;2603355;54;20051;31
2023/10/13 08:12:59;;;;;;;8.87;5.83;;;24.90;99.90;;;;;;2621322;46;20859;31
2023/10/13 08:15:34;;;;;;;10.65;6.20;;;25.10;99.90;;;;;;2603405;54;20585;31
2023/10/13 08:18:17;;;;;;;9.35;6.50;;;25.00;99.90;;;;;;2616929;46;20896;31
2023/10/13 08:21:02;;;;;;;8.93;6.43;;;25.20;99.90;;;;;;2603345;54;20827;31
2023/10/13 08:26:56;;;;;;;17.80;6.60;;;25.20;99.90;;;;;;2603249;54;20027;31
2023/10/13 08:30:26;;;;;;;7.60;5.50;;;25.30;99.90;;;;;;2603388;54;20308;31
2023/10/13 08:32:58;;;;;;;8.60;5.33;;;25.40;99.90;;;;;;2621757;46;20026;31
2023/10/13 08:35:54;;;;;;;8.05;5.03;;;25.40;99.90;;;;;;2603109;54;21187;31
2023/10/13 08:38:43;;;;;;;7.30;5.50;;;25.40;99.90;;;;;;2603190;54;20117;31
2023/10/13 08:41:31;;;;;;;7.75;5.30;;;25.60;99.90;;;;;;2621663;46;21362;31
2023/10/13 08:44:31;;;;;;;8.40;5.13;;;25.50;99.90;;;;;;2603161;54;20030;31
2023/10/13 08:47:35;;;;;;;10.10;5.10;;;25.50;99.90;;;;;;2603331;54;20030;31
2023/10/13 08:52:56;;;;;;;8.10;4.70;;;25.60;99.90;;;;;;2603228;54;20026;31
2023/10/13 08:56:00;;;;;;;6.75;4.70;;;25.70;99.90;;;;;;2621542;46;20038;31
2023/10/13 09:04:33;;;;;;;7.80;5.00;;;25.50;99.90;;;;;;2613249;47;20081;31
2023/10/13 09:07:15;;;;;;;5.38;4.10;;;25.20;99.90;;;;;;2621754;47;20870;31
2023/10/13 09:13:00;;;;;;;7.45;4.55;;;25.00;99.90;;;;;;2603065;54;20869;31
2023/10/13 09:18:46;;;;;;;9.23;4.07;;;25.10;99.90;;;;;;2603056;54;20031;31
2023/10/13 09:24:31;;;;;;;7.50;3.95;;;25.20;99.90;;;;;;2603045;54;20026;31
2023/10/13 09:27:12;;;;;;;5.00;3.92;;;25.10;99.90;;;;;;2603115;54;20035;31
2023/10/13 09:29:55;;;;;;;6.35;4.40;;;25.20;99.90;;;;;;2621106;47;20022;31
2023/10/13 09:32:49;;;;;;;5.45;4.00;;;25.20;99.90;;;;;;2621729;47;20037;31
2023/10/13 09:35:53;;;;;;;8.18;4.00;;;25.20;99.90;;;;;;2602943;54;20093;31
2023/10/13 09:38:40;;;;;;;9.05;4.47;;;25.10;99.90;;;;;;2602821;54;20033;31
2023/10/13 09:43:57;;;;;;;5.45;3.80;;;24.60;99.90;;;;;;2620974;47;20949;31
2023/10/13 09:46:35;;;;;;;4.63;3.43;;;24.50;99.90;;;;;;2603128;54;20033;31
2023/10/13 09:49:33;;;;;;;4.65;3.35;;;24.40;99.90;;;;;;2621593;47;20038;31
2023/10/13 09:52:10;;;;;;;6.47;3.55;;;24.40;99.90;;;;;;2603153;54;20049;31
2023/10/13 09:55:13;;;;;;;5.10;3.40;;;24.30;99.90;;;;;;2603805;54;20887;31
2023/10/13 09:57:49;;;;;;;4.40;3.00;;;24.20;99.90;;;;;;2604025;54;20030;31
2023/10/13 10:00:49;;;;;;;5.63;3.45;;;24.00;99.90;;;;;;2603722;54;20064;31
2023/10/13 10:03:39;;;;;;;4.28;3.55;;;23.80;99.90;;;;;;2603952;54;20917;31
2023/10/13 10:06:27;;;;;;;6.30;3.95;;;23.70;99.90;;;;;;2603756;54;20085;31
2023/10/13 10:15:13;;;;;;;6.35;3.75;;;23.80;99.90;;;;;;2602945;54;20936;31
2023/10/13 10:17:53;;;;;;;8.50;3.50;;;23.90;99.90;;;;;;2622461;46;20086;31
2023/10/13 10:20:39;;;;;;;4.10;2.70;;;23.90;99.90;;;;;;2603819;54;20173;31
2023/10/13 10:23:27;;;;;;;5.43;3.53;;;23.80;99.90;;;;;;2603927;54;20895;31
2023/10/13 10:26:13;;;;;;;5.32;3.28;;;23.80;99.90;;;;;;2603179;54;20839;31
2023/10/13 10:28:54;;;;;;;5.35;3.10;;;23.80;99.90;;;;;;2603791;54;20809;31
2023/10/13 10:31:44;;;;;;;4.32;3.05;;;23.90;99.90;;;;;;2603574;54;20836;31
2023/10/13 10:34:22;;;;;;;6.40;3.50;;;;;;;;;;2603795;54;20023;31
2023/10/13 10:36:59;;;;;;;3.97;3.22;;;24.40;99.90;;;;;;2603726;54;20910;31
2023/10/13 10:42:23;;;;;;;3.70;2.95;;;24.40;99.90;;;;;;2603356;54;20898;31
2023/10/13 10:47:58;;;;;;;5.40;3.00;;;24.30;99.90;;;;;;2603714;54;20026;31
2023/10/13 10:50:37;;;;;;;2.92;2.25;;;24.40;99.90;;;;;;2603522;54;25031;31
2023/10/13 10:53:14;;;;;;;3.90;3.20;;;24.30;99.90;;;;;;2702347;39;20994;31
2023/10/13 10:55:55;;;;;;;5.55;2.92;;;24.30;99.90;;;;;;2621826;46;20860;31
2023/10/13 11:01:19;;;;;;;4.40;2.85;;;24.20;99.90;;;;;;2603701;54;20130;31
2023/10/13 11:09:52;;;;;;;4.38;3.15;;;24.10;99.90;;;;;;2602678;54;20053;31
2023/10/13 11:12:33;;;;;;;4.13;3.13;;;23.90;99.90;;;;;;2622184;46;20862;31
2023/10/13 11:15:21;;;;;;;3.85;3.03;;;23.70;99.90;;;;;;2603490;54;20576;31
2023/10/13 11:24:12;;;;;;;4.38;3.10;;;23.60;99.90;;;;;;2603622;54;20089;31
2023/10/13 11:26:54;;;;;;;5.63;3.63;;;23.40;99.90;;;;;;2603354;54;20903;31
2023/10/13 11:29:39;;;;;;;3.40;2.90;;;23.40;99.90;;;;;;2603581;54;20157;31
2023/10/13 11:43:34;;;;;;;5.00;2.50;;;23.20;99.90;;;;;;2603445;54;20931;31
2023/10/13 11:46:16;;;;;;;4.40;2.30;;;23.20;99.90;;;;;;2702088;39;21045;31
2023/10/13 11:48:55;;;;;;;3.25;2.55;;;23.20;99.90;;;;;;2603547;54;20904;31
2023/10/13 13:34:34;;;;;;;4.27;2.17;;;21.60;99.90;;;;;;2610832;54;19935;31
2023/10/13 13:40:13;;;;;;;2.97;1.77;;;21.60;99.90;;;;;;2621582;46;20686;31
2023/10/13 13:46:00;;;;;;;5.10;2.30;;;21.60;99.90;;;;;;2702284;39;20504;31
2023/10/13 13:54:28;;;;;;;4.80;2.20;;;21.50;99.90;;;;;;2622830;46;20022;31
2023/10/13 13:57:06;;;;;;;7.20;2.03;;;21.50;99.90;;;;;;2603741;54;20910;31
2023/10/13 13:59:45;;;;;;;4.25;2.70;;;21.50;99.90;;;;;;2622024;46;20026;31
2023/10/13 14:04:56;;;;;;;5.90;2.37;;;21.60;99.90;;;;;;2603912;54;20026;31
2023/10/13 14:07:33;;;;;;;4.18;2.30;;;21.60;99.90;;;;;;2603749;54;20046;31
2023/10/13 14:10:30;;;;;;;4.60;1.65;;;21.60;99.90;;;;;;2603708;54;20026;31
2023/10/13 14:13:13;;;;;;;8.68;2.55;;;21.60;99.90;;;;;;2603666;54;20834;31
2023/10/13 14:15:56;;;;;;;3.80;2.45;;;21.60;99.90;;;;;;2622198;46;20030;31
2023/10/13 14:18:33;;;;;;;5.20;2.17;;;21.60;99.90;;;;;;2621924;46;20117;31
2023/10/13 14:21:09;;;;;;;5.93;2.63;;;21.60;99.90;;;;;;2603726;54;20026;31
2023/10/13 14:23:45;;;;;;;6.95;2.75;;;21.60;99.90;;;;;;2603758;54;20022;31
2023/10/13 14:26:26;;;;;;;5.40;2.55;;;21.60;99.90;;;;;;2603699;54;20022;31
2023/10/13 14:29:08;;;;;;;6.68;2.28;;;21.60;99.90;;;;;;2603982;54;20854;31
2023/10/13 14:31:44;;;;;;;3.60;2.20;;;21.60;99.90;;;;;;2603747;54;20592;31
2023/10/13 14:34:24;;;;;;;4.80;2.53;;;21.60;99.90;;;;;;2603714;54;20057;31
2023/10/13 14:37:01;;;;;;;5.22;1.88;;;21.50;99.90;;;;;;2603777;54;20030;31
2023/10/13 14:39:43;;;;;;;5.93;2.63;;;21.50;99.90;;;;;;2603396;54;20033;31
2023/10/13 14:42:22;;;;;;;6.50;2.30;;;21.50;99.90;;;;;;2702379;39;21085;31
2023/10/13 14:45:00;;;;;;;8.20;2.70;;;21.50;99.90;;;;;;2603603;54;20026;31
2023/10/13 14:47:39;;;;;;;7.97;2.23;;;21.50;99.90;;;;;;2603776;54;20026;31
2023/10/13 14:50:28;;;;;;;9.85;3.25;;;21.40;99.90;;;;;;2622201;46;20060;31
2023/10/13 14:53:05;;;;;;;4.00;2.60;;;21.40;99.90;;;;;;2603723;54;20888;31
2023/10/13 14:55:41;;;;;;;5.55;2.10;;;21.30;99.90;;;;;;2603569;54;20912;31
2023/10/13 14:58:20;;;;;;;7.45;2.70;;;21.40;99.90;;;;;;2603540;54;20038;31
2023/10/13 15:00:58;;;;;;;3.17;1.95;;;21.30;99.90;;;;;;2622030;46;20118;31
2023/10/13 15:03:37;;;;;;;5.20;2.10;;;21.30;99.90;;;;;;2603605;54;20045;31
2023/10/13 15:06:20;;;;;;;3.93;2.63;;;21.30;99.90;;;;;;2773836;31;21564;31
2023/10/13 15:08:56;;;;;;;3.33;2.35;;;21.30;99.90;;;;;;2602876;54;21167;31
2023/10/13 15:11:40;;;;;;;5.95;2.13;;;21.30;99.90;;;;;;2615704;46;20711;31
2023/10/13 15:14:29;;;;;;;5.50;2.10;;;21.20;99.90;;;;;;2603678;54;20569;31
2023/10/13 15:17:06;;;;;;;4.30;2.28;;;21.20;99.90;;;;;;2603491;54;20064;31
2023/10/13 15:19:43;;;;;;;5.22;2.08;;;21.20;99.90;;;;;;2603573;54;20031;31
2023/10/13 15:22:26;;;;;;;6.13;2.42;;;21.10;99.90;;;;;;2603642;54;20030;31
2023/10/13 15:25:09;;;;;;;4.38;1.90;;;21.10;99.90;;;;;;2603609;54;20870;31
2023/10/13 15:27:50;;;;;;;7.55;2.22;;;21.10;99.90;;;;;;2621564;46;20716;31
2023/10/13 15:30:43;;;;;;;5.75;2.50;;;21.00;99.90;;;;;;2603631;54;20655;31
2023/10/13 15:33:25;;;;;;;4.50;2.30;;;21.00;99.90;;;;;;2603610;54;20035;31
2023/10/13 15:36:08;;;;;;;5.65;2.70;;;21.00;99.90;;;;;;2603450;54;20141;31
2023/10/13 15:38:48;;;;;;;8.15;2.80;;;20.90;99.90;;;;;;2603545;54;20167;31
2023/10/13 15:41:26;;;;;;;10.05;2.95;;;20.90;99.90;;;;;;2603751;54;20140;31
2023/10/13 15:44:06;;;;;;;7.18;2.38;;;20.80;99.90;;;;;;2602993;54;20885;31
2023/10/13 15:46:49;;;;;;;9.65;2.45;;;20.80;99.90;;;;;;2615129;46;20131;31
2023/10/13 15:49:47;;;;;;;9.98;2.63;;;20.80;99.90;;;;;;2603280;54;20842;31
2023/10/13 15:52:25;;;;;;;4.38;2.28;;;20.80;99.90;;;;;;2603542;54;20845;31
2023/10/13 15:55:01;;;;;;;5.78;2.55;;;20.80;99.90;;;;;;2603324;54;20105;31
2023/10/13 15:57:36;;;;;;;8.10;3.00;;;20.70;99.90;;;;;;2603317;54;20801;31
2023/10/13 16:00:26;;;;;;;4.95;2.55;;;20.70;99.90;;;;;;2603478;54;20051;31
2023/10/13 16:03:10;;;;;;;7.65;2.58;;;20.70;99.90;;;;;;2603252;54;20025;31
2023/10/13 16:05:47;;;;;;;6.78;2.97;;;20.60;99.90;;;;;;2773100;31;20568;31
2023/10/13 16:08:22;;;;;;;5.55;2.45;;;20.60;99.90;;;;;;2603472;54;20880;31
2023/10/13 16:10:58;;;;;;;4.60;2.60;;;20.60;99.90;;;;;;2603355;54;20038;31
2023/10/13 16:13:34;;;;;;;6.93;3.25;;;20.60;99.90;;;;;;2603247;54;20263;31
2023/10/13 16:16:11;;;;;;;8.80;2.85;;;20.60;99.90;;;;;;2603195;54;20887;31
2023/10/13 16:18:49;;;;;;;6.38;2.63;;;20.60;99.90;;;;;;2602503;54;20821;31
2023/10/13 16:21:25;;;;;;;7.05;2.90;;;20.50;99.90;;;;;;2603074;54;20861;31
2023/10/13 16:24:00;;;;;;;9.10;2.60;;;20.50;99.90;;;;;;2603060;54;20085;31
2023/10/13 16:26:35;;;;;;;11.70;2.95;;;20.50;99.90;;;;;;2603025;54;20861;31
2023/10/13 16:29:10;;;;;;;6.95;2.70;;;20.50;99.90;;;;;;2603205;54;20263;31
2023/10/13 16:31:46;;;;;;;6.05;3.05;;;20.50;99.90;;;;;;2602985;54;20089;31
2023/10/13 16:34:25;;;;;;;6.00;2.75;;;20.50;99.90;;;;;;2603160;54;20992;31
2023/10/13 16:37:04;;;;;;;8.70;2.30;;;20.40;99.90;;;;;;2603365;54;20909;31
2023/10/13 16:39:40;;;;;;;7.05;3.28;;;20.40;99.90;;;;;;2603075;54;20026;31
2023/10/13 16:42:16;;;;;;;5.50;2.65;;;20.30;99.90;;;;;;2602831;54;20914;31
2023/10/13 16:44:54;;;;;;;8.60;2.97;;;20.30;99.90;;;;;;2603137;54;20132;31
2023/10/13 16:47:31;;;;;;;6.20;3.00;;;20.30;99.90;;;;;;2603280;54;20027;31
2023/10/13 16:50:14;;;;;;;5.57;2.63;;;20.30;99.90;;;;;;2603396;54;20918;31
2023/10/13 16:52:49;;;;;;;6.40;3.05;;;20.30;99.90;;;;;;2603201;54;20070;31
2023/10/13 16:55:25;;;;;;;6.40;3.15;;;20.30;99.90;;;;;;2603236;54;20030;31
2023/10/13 17:01:03;;;;;;;6.38;3.15;;;20.30;99.90;;;;;;2603221;54;20022;31
2023/10/13 17:03:41;;;;;;;8.85;3.20;;;20.20;99.90;;;;;;2602102;54;20038;31
2023/10/13 17:06:23;;;;;;;7.22;3.00;;;20.20;99.90;;;;;;2602468;54;20858;31
2023/10/13 17:11:44;;;;;;;6.53;2.80;;;20.20;99.90;;;;;;2603188;54;20124;31
2023/10/13 17:14:19;;;;;;;10.52;3.17;;;20.20;99.90;;;;;;2603289;54;20893;31
2023/10/13 17:16:57;;;;;;;8.45;3.15;;;20.10;99.90;;;;;;2602887;54;20033;31
2023/10/13 17:19:37;;;;;;;7.20;3.20;;;20.10;99.90;;;;;;2621480;47;20026;31
2023/10/13 17:22:16;;;;;;;12.38;3.60;;;20.10;99.90;;;;;;2621465;47;20942;31
2023/10/13 17:24:51;;;;;;;8.13;3.55;;;20.10;99.90;;;;;;2621765;47;20058;31
2023/10/13 17:27:28;;;;;;;8.30;3.45;;;20.00;99.90;;;;;;2602917;54;20031;31
2023/10/13 17:30:05;;;;;;;6.20;3.20;;;20.00;99.90;;;;;;2602856;54;20045;31
2023/10/13 17:32:44;;;;;;;7.15;3.28;;;20.00;99.90;;;;;;2621671;47;20037;31
2023/10/13 17:35:22;;;;;;;10.95;3.08;;;20.00;99.90;;;;;;2602875;54;20875;31
2023/10/13 17:38:10;;;;;;;9.60;2.90;;;19.90;99.90;;;;;;2602073;54;20221;31
2023/10/13 17:56:20;;;;;;;7.45;3.60;;;19.70;99.90;;;;;;2602081;54;20086;31
2023/10/13 17:58:59;;;;;;;6.57;3.40;;;19.70;99.90;;;;;;2602843;54;20870;31
2023/10/13 18:01:48;;;;;;;5.55;3.15;;;19.70;99.90;;;;;;2621442;47;20984;31
2023/10/13 18:07:35;;;;;;;14.40;3.30;;;19.70;99.90;;;;;;2603461;47;20096;31
2023/10/13 18:10:17;;;;;;;13.25;4.15;;;19.70;99.90;;;;;;2602354;54;20998;31
2023/10/13 18:12:57;;;;;;;8.10;3.58;;;19.70;99.90;;;;;;2602883;54;20918;31
2023/10/13 18:15:34;;;;;;;8.65;2.95;;;19.70;99.90;;;;;;2603773;54;20049;31
2023/10/13 18:18:17;;;;;;;11.55;3.40;;;19.80;99.90;;;;;;2603692;54;20109;31
2023/10/13 18:20:52;;;;;;;7.53;3.47;;;19.80;99.90;;;;;;2602989;54;20061;31
2023/10/13 18:23:29;;;;;;;8.13;3.47;;;19.80;99.90;;;;;;2603842;54;19990;31
2023/10/13 18:26:05;;;;;;;13.55;3.33;;;19.80;99.90;;;;;;2603724;54;20033;31
2023/10/13 18:28:43;;;;;;;8.10;3.28;;;19.80;99.90;;;;;;2603696;54;20038;31
2023/10/13 18:31:18;;;;;;;12.77;3.53;;;19.80;99.90;;;;;;2603446;54;20034;31
2023/10/13 18:33:57;;;;;;;7.63;3.28;;;19.70;99.90;;;;;;2603721;54;20867;31
2023/10/13 18:36:32;;;;;;;9.73;2.97;;;19.70;99.90;;;;;;2603622;54;20030;31
2023/10/13 18:39:18;;;;;;;5.95;3.15;;;19.70;99.90;;;;;;2603912;54;20030;31
2023/10/13 18:41:53;;;;;;;;;;;19.70;99.90;;;;;;2603907;54;20108;31
2023/10/13 18:44:31;;;;;;;7.85;2.95;;;19.70;99.90;;;;;;2603744;54;20764;31
2023/10/13 18:47:08;;;;;;;9.23;4.40;;;19.70;99.90;;;;;;2603001;54;20029;31
2023/10/13 18:49:44;;;;;;;5.43;2.60;;;19.70;99.90;;;;;;2603650;54;20876;31
2023/10/13 18:52:18;;;;;;;16.98;3.25;;;19.60;99.90;;;;;;2603583;54;20112;31
2023/10/13 18:54:53;;;;;;;7.30;3.10;;;19.60;99.90;;;;;;2603655;54;20044;31
2023/10/13 18:57:28;;;;;;;8.80;3.80;;;19.60;99.90;;;;;;2603675;54;20049;31
2023/10/13 19:00:14;;;;;;;11.23;3.70;;;19.60;99.90;;;;;;2603560;54;20085;31
2023/10/13 19:02:50;;;;;;;8.45;3.05;;;19.50;99.90;;;;;;2603781;54;20267;31
2023/10/13 19:05:25;;;;;;;8.55;2.75;;;19.50;99.90;;;;;;2603877;54;20034;31
2023/10/13 19:07:59;;;;;;;14.55;3.35;;;19.50;99.90;;;;;;2702089;39;20481;31
2023/10/13 19:10:35;;;;;;;7.30;2.70;;;19.50;99.90;;;;;;2603588;54;20859;31